sensor_id;sensor_type;location;lat;lon;timestamp;P1;durP1;ratioP1;P2;durP2;ratioP2
65182;SDS011;51771;51.068;-1.780;2022-11-20T08:32:37;27.15;;;3.92;;
65182;SDS011;51771;51.068;-1.780;2022-11-20T08:35:02;29.83;;;3.92;;
65182;SDS011;51771;51.068;-1.780;2022-11-20T08:37:28;21.40;;;4.75;;
65182;SDS011;51771;51.068;-1.780;2022-11-20T08:39:53;33.93;;;4.53;;
65182;SDS011;51771;51.068;-1.780;2022-11-20T08:42:19;40.28;;;7.35;;
65182;SDS011;51771;51.068;-1.780;2022-11-20T08:44:44;39.87;;;6.30;;
65182;SDS011;51771;51.068;-1.780;2022-11-20T08:47:09;55.80;;;5.63;;
65182;SDS011;51771;51.068;-1.780;2022-11-20T08:49:34;37.58;;;5.15;;
65182;SDS011;51771;51.068;-1.780;2022-11-20T08:51:59;35.70;;;5.30;;
65182;SDS011;51771;51.068;-1.780;2022-11-20T08:54:25;40.57;;;8.03;;
65182;SDS011;51771;51.068;-1.780;2022-11-20T08:56:50;32.73;;;4.90;;
65182;SDS011;51771;51.068;-1.780;2022-11-20T08:59:15;36.80;;;4.40;;
65182;SDS011;51771;51.068;-1.780;2022-11-20T09:01:40;46.63;;;7.63;;
65182;SDS011;51771;51.068;-1.780;2022-11-20T09:04:05;38.70;;;6.23;;
65182;SDS011;51771;51.068;-1.780;2022-11-20T09:06:31;67.75;;;7.53;;
65182;SDS011;51771;51.068;-1.780;2022-11-20T09:08:56;43.57;;;5.40;;
65182;SDS011;51771;51.068;-1.780;2022-11-20T09:11:22;47.85;;;5.93;;
65182;SDS011;51771;51.068;-1.780;2022-11-20T09:13:47;33.97;;;5.88;;
65182;SDS011;51771;51.068;-1.780;2022-11-20T09:16:12;43.60;;;5.88;;
65182;SDS011;51771;51.068;-1.780;2022-11-20T09:18:38;38.47;;;5.78;;
65182;SDS011;51771;51.068;-1.780;2022-11-20T09:21:07;45.67;;;5.50;;
65182;SDS011;51771;51.068;-1.780;2022-11-20T09:23:35;36.47;;;5.47;;
65182;SDS011;51771;51.068;-1.780;2022-11-20T09:26:08;38.53;;;6.50;;
65182;SDS011;51771;51.068;-1.780;2022-11-20T09:28:34;56.33;;;7.00;;
65182;SDS011;51771;51.068;-1.780;2022-11-20T09:30:59;30.90;;;6.10;;
65182;SDS011;51771;51.068;-1.780;2022-11-20T09:33:24;31.70;;;6.25;;
65182;SDS011;51771;51.068;-1.780;2022-11-20T09:35:49;40.60;;;6.37;;
65182;SDS011;51771;51.068;-1.780;2022-11-20T09:38:14;32.33;;;7.00;;
65182;SDS011;51771;51.068;-1.780;2022-11-20T09:40:48;43.15;;;5.68;;
65182;SDS011;51771;51.068;-1.780;2022-11-20T09:43:17;50.03;;;6.40;;
65182;SDS011;51771;51.068;-1.780;2022-11-20T09:50:57;34.08;;;6.65;;
65182;SDS011;51771;51.068;-1.780;2022-11-20T09:53:46;37.28;;;5.72;;
65182;SDS011;51771;51.068;-1.780;2022-11-20T09:56:17;30.83;;;5.53;;
65182;SDS011;51771;51.068;-1.780;2022-11-20T09:58:54;54.45;;;8.18;;
65182;SDS011;51771;51.068;-1.780;2022-11-20T10:01:26;38.03;;;5.57;;
65182;SDS011;51771;51.068;-1.780;2022-11-20T10:19:13;22.38;;;4.32;;
65182;SDS011;51771;51.068;-1.780;2022-11-20T10:26:50;28.27;;;4.18;;
65182;SDS011;51771;51.068;-1.780;2022-11-20T10:29:19;32.90;;;5.43;;
65182;SDS011;51771;51.068;-1.780;2022-11-20T10:31:51;31.20;;;5.72;;
65182;SDS011;51771;51.068;-1.780;2022-11-20T10:37:06;28.40;;;5.97;;
65182;SDS011;51771;51.068;-1.780;2022-11-20T10:39:39;34.08;;;5.43;;
65182;SDS011;51771;51.068;-1.780;2022-11-20T10:42:08;31.17;;;5.65;;
65182;SDS011;51771;51.068;-1.780;2022-11-20T10:44:35;25.52;;;6.03;;
65182;SDS011;51771;51.068;-1.780;2022-11-20T10:49:51;23.67;;;4.50;;
65182;SDS011;51771;51.068;-1.780;2022-11-20T10:54:58;41.10;;;6.25;;
65182;SDS011;51771;51.068;-1.780;2022-11-20T11:00:03;24.65;;;4.65;;
65182;SDS011;51771;51.068;-1.780;2022-11-20T11:02:34;31.17;;;5.70;;
65182;SDS011;51771;51.068;-1.780;2022-11-20T11:05:01;24.95;;;4.63;;
65182;SDS011;51771;51.068;-1.780;2022-11-20T11:07:35;28.98;;;5.43;;
65182;SDS011;51771;51.068;-1.780;2022-11-20T11:10:00;24.52;;;4.00;;
65182;SDS011;51771;51.068;-1.780;2022-11-20T11:12:28;35.47;;;5.40;;
65182;SDS011;51771;51.068;-1.780;2022-11-20T11:14:54;28.10;;;6.18;;
65182;SDS011;51771;51.068;-1.780;2022-11-20T11:17:21;38.03;;;5.03;;
65182;SDS011;51771;51.068;-1.780;2022-11-20T11:19:56;41.97;;;5.72;;
65182;SDS011;51771;51.068;-1.780;2022-11-20T11:22:21;27.83;;;4.38;;
65182;SDS011;51771;51.068;-1.780;2022-11-20T11:24:53;21.03;;;4.37;;
65182;SDS011;51771;51.068;-1.780;2022-11-20T11:27:18;18.17;;;4.20;;
65182;SDS011;51771;51.068;-1.780;2022-11-20T11:29:44;56.30;;;6.57;;
65182;SDS011;51771;51.068;-1.780;2022-11-20T11:32:28;26.60;;;6.70;;
65182;SDS011;51771;51.068;-1.780;2022-11-20T11:34:59;17.70;;;4.68;;
65182;SDS011;51771;51.068;-1.780;2022-11-20T11:37:25;17.85;;;4.68;;
65182;SDS011;51771;51.068;-1.780;2022-11-20T11:39:53;30.88;;;5.35;;
65182;SDS011;51771;51.068;-1.780;2022-11-20T11:42:19;26.52;;;6.68;;
65182;SDS011;51771;51.068;-1.780;2022-11-20T11:44:45;48.85;;;6.18;;
65182;SDS011;51771;51.068;-1.780;2022-11-20T11:50:28;29.33;;;5.57;;
65182;SDS011;51771;51.068;-1.780;2022-11-20T11:55:25;28.40;;;6.68;;
65182;SDS011;51771;51.068;-1.780;2022-11-20T11:58:11;27.08;;;4.22;;
65182;SDS011;51771;51.068;-1.780;2022-11-20T12:00:39;29.20;;;4.93;;
65182;SDS011;51771;51.068;-1.780;2022-11-20T12:05:42;26.25;;;5.28;;
65182;SDS011;51771;51.068;-1.780;2022-11-20T12:08:16;23.48;;;4.80;;
65182;SDS011;51771;51.068;-1.780;2022-11-20T12:10:45;24.23;;;5.25;;
65182;SDS011;51771;51.068;-1.780;2022-11-20T12:15:56;35.78;;;5.50;;
65182;SDS011;51771;51.068;-1.780;2022-11-20T12:18:22;21.10;;;3.28;;
65182;SDS011;51771;51.068;-1.780;2022-11-20T12:26:29;30.63;;;5.05;;
65182;SDS011;51771;51.068;-1.780;2022-11-20T12:31:45;20.55;;;4.38;;
65182;SDS011;51771;51.068;-1.780;2022-11-20T12:36:45;19.10;;;4.35;;
65182;SDS011;51771;51.068;-1.780;2022-11-20T12:50:28;20.73;;;3.88;;
65182;SDS011;51771;51.068;-1.780;2022-11-20T12:53:04;37.30;;;5.20;;
65182;SDS011;51771;51.068;-1.780;2022-11-20T13:00:35;31.65;;;4.63;;
65182;SDS011;51771;51.068;-1.780;2022-11-20T13:03:23;31.85;;;5.60;;
65182;SDS011;51771;51.068;-1.780;2022-11-20T13:08:22;22.52;;;3.55;;
65182;SDS011;51771;51.068;-1.780;2022-11-20T13:13:18;31.00;;;4.03;;
65182;SDS011;51771;51.068;-1.780;2022-11-20T13:18:11;24.10;;;3.40;;
65182;SDS011;51771;51.068;-1.780;2022-11-20T13:20:40;23.13;;;4.32;;
65182;SDS011;51771;51.068;-1.780;2022-11-20T13:23:06;30.27;;;4.88;;
65182;SDS011;51771;51.068;-1.780;2022-11-20T13:25:32;14.90;;;3.37;;
65182;SDS011;51771;51.068;-1.780;2022-11-20T13:27:59;21.77;;;3.60;;
65182;SDS011;51771;51.068;-1.780;2022-11-20T13:30:27;29.20;;;3.70;;
65182;SDS011;51771;51.068;-1.780;2022-11-20T13:32:54;32.70;;;4.88;;
65182;SDS011;51771;51.068;-1.780;2022-11-20T13:35:24;21.30;;;4.57;;
65182;SDS011;51771;51.068;-1.780;2022-11-20T13:37:59;18.08;;;3.13;;
65182;SDS011;51771;51.068;-1.780;2022-11-20T13:40:24;11.25;;;2.72;;
65182;SDS011;51771;51.068;-1.780;2022-11-20T13:43:04;28.52;;;4.82;;
65182;SDS011;51771;51.068;-1.780;2022-11-20T13:45:32;17.27;;;3.30;;
65182;SDS011;51771;51.068;-1.780;2022-11-20T13:47:59;12.57;;;3.17;;
65182;SDS011;51771;51.068;-1.780;2022-11-20T13:50:37;13.90;;;2.38;;
65182;SDS011;51771;51.068;-1.780;2022-11-20T13:53:12;22.20;;;3.45;;
65182;SDS011;51771;51.068;-1.780;2022-11-20T13:55:55;17.20;;;2.58;;
65182;SDS011;51771;51.068;-1.780;2022-11-20T13:58:29;18.90;;;2.80;;
65182;SDS011;51771;51.068;-1.780;2022-11-20T14:03:30;13.48;;;2.45;;
65182;SDS011;51771;51.068;-1.780;2022-11-20T14:06:02;3.75;;;1.50;;
65182;SDS011;51771;51.068;-1.780;2022-11-20T14:11:03;12.18;;;2.47;;
65182;SDS011;51771;51.068;-1.780;2022-11-20T14:13:28;14.70;;;2.55;;
65182;SDS011;51771;51.068;-1.780;2022-11-20T14:15:56;11.52;;;2.60;;
65182;SDS011;51771;51.068;-1.780;2022-11-20T14:18:22;4.47;;;1.60;;
65182;SDS011;51771;51.068;-1.780;2022-11-20T14:20:47;10.45;;;1.58;;
65182;SDS011;51771;51.068;-1.780;2022-11-20T14:23:22;5.80;;;1.15;;
65182;SDS011;51771;51.068;-1.780;2022-11-20T14:25:47;6.95;;;1.38;;
65182;SDS011;51771;51.068;-1.780;2022-11-20T14:28:18;4.80;;;1.25;;
65182;SDS011;51771;51.068;-1.780;2022-11-20T14:30:47;3.83;;;1.17;;
65182;SDS011;51771;51.068;-1.780;2022-11-20T14:33:12;13.07;;;2.15;;
65182;SDS011;51771;51.068;-1.780;2022-11-20T14:35:49;13.50;;;1.85;;
65182;SDS011;51771;51.068;-1.780;2022-11-20T14:38:16;12.77;;;1.52;;
65182;SDS011;51771;51.068;-1.780;2022-11-20T14:40:42;5.25;;;1.27;;
65182;SDS011;51771;51.068;-1.780;2022-11-20T14:43:24;2.53;;;1.30;;
65182;SDS011;51771;51.068;-1.780;2022-11-20T14:45:57;2.15;;;1.13;;
65182;SDS011;51771;51.068;-1.780;2022-11-20T14:48:45;8.88;;;1.80;;
65182;SDS011;51771;51.068;-1.780;2022-11-20T14:51:09;4.40;;;1.52;;
65182;SDS011;51771;51.068;-1.780;2022-11-20T14:53:34;11.45;;;1.88;;
65182;SDS011;51771;51.068;-1.780;2022-11-20T14:56:01;6.87;;;1.30;;
65182;SDS011;51771;51.068;-1.780;2022-11-20T14:58:30;15.80;;;2.33;;
65182;SDS011;51771;51.068;-1.780;2022-11-20T15:01:06;7.65;;;3.33;;
65182;SDS011;51771;51.068;-1.780;2022-11-20T15:03:39;13.40;;;2.22;;
65182;SDS011;51771;51.068;-1.780;2022-11-20T15:06:09;7.38;;;1.65;;
65182;SDS011;51771;51.068;-1.780;2022-11-20T15:08:35;10.63;;;2.47;;
65182;SDS011;51771;51.068;-1.780;2022-11-20T15:11:00;6.45;;;1.77;;
65182;SDS011;51771;51.068;-1.780;2022-11-20T15:13:29;12.57;;;2.65;;
65182;SDS011;51771;51.068;-1.780;2022-11-20T15:15:55;6.10;;;1.88;;
65182;SDS011;51771;51.068;-1.780;2022-11-20T15:18:26;14.15;;;2.13;;
65182;SDS011;51771;51.068;-1.780;2022-11-20T15:20:52;13.13;;;2.42;;
65182;SDS011;51771;51.068;-1.780;2022-11-20T15:23:19;8.18;;;1.90;;
65182;SDS011;51771;51.068;-1.780;2022-11-20T15:25:45;8.52;;;2.15;;
65182;SDS011;51771;51.068;-1.780;2022-11-20T15:28:32;12.98;;;1.90;;
65182;SDS011;51771;51.068;-1.780;2022-11-20T15:30:56;8.55;;;1.63;;
65182;SDS011;51771;51.068;-1.780;2022-11-20T15:33:21;18.13;;;3.03;;
65182;SDS011;51771;51.068;-1.780;2022-11-20T15:35:47;9.63;;;2.55;;
65182;SDS011;51771;51.068;-1.780;2022-11-20T15:38:12;5.90;;;1.67;;
65182;SDS011;51771;51.068;-1.780;2022-11-20T15:40:38;14.40;;;2.35;;
65182;SDS011;51771;51.068;-1.780;2022-11-20T15:43:03;18.27;;;4.03;;
65182;SDS011;51771;51.068;-1.780;2022-11-20T15:45:50;21.60;;;4.97;;
65182;SDS011;51771;51.068;-1.780;2022-11-20T15:48:15;16.88;;;4.35;;
65182;SDS011;51771;51.068;-1.780;2022-11-20T15:50:43;20.08;;;2.10;;
65182;SDS011;51771;51.068;-1.780;2022-11-20T15:53:12;3.75;;;1.30;;
65182;SDS011;51771;51.068;-1.780;2022-11-20T15:55:37;17.85;;;5.38;;
65182;SDS011;51771;51.068;-1.780;2022-11-20T15:58:02;11.23;;;3.60;;
65182;SDS011;51771;51.068;-1.780;2022-11-20T16:00:28;11.03;;;3.03;;
65182;SDS011;51771;51.068;-1.780;2022-11-20T16:02:53;18.40;;;3.33;;
65182;SDS011;51771;51.068;-1.780;2022-11-20T16:05:18;10.90;;;2.33;;
65182;SDS011;51771;51.068;-1.780;2022-11-20T16:07:43;11.10;;;3.03;;
65182;SDS011;51771;51.068;-1.780;2022-11-20T16:10:09;12.13;;;2.37;;
65182;SDS011;51771;51.068;-1.780;2022-11-20T16:12:34;12.63;;;3.33;;
65182;SDS011;51771;51.068;-1.780;2022-11-20T16:15:18;14.82;;;2.20;;
65182;SDS011;51771;51.068;-1.780;2022-11-20T16:18:02;6.35;;;2.13;;
65182;SDS011;51771;51.068;-1.780;2022-11-20T16:20:27;14.90;;;2.72;;
65182;SDS011;51771;51.068;-1.780;2022-11-20T16:22:54;16.67;;;3.55;;
65182;SDS011;51771;51.068;-1.780;2022-11-20T16:25:19;20.08;;;4.25;;
65182;SDS011;51771;51.068;-1.780;2022-11-20T16:27:44;19.33;;;3.57;;
65182;SDS011;51771;51.068;-1.780;2022-11-20T16:30:10;16.30;;;3.73;;
65182;SDS011;51771;51.068;-1.780;2022-11-20T16:32:35;13.65;;;3.75;;
65182;SDS011;51771;51.068;-1.780;2022-11-20T16:35:00;14.33;;;3.23;;
65182;SDS011;51771;51.068;-1.780;2022-11-20T16:37:25;8.50;;;2.37;;
65182;SDS011;51771;51.068;-1.780;2022-11-20T16:39:50;16.83;;;3.37;;
65182;SDS011;51771;51.068;-1.780;2022-11-20T16:42:16;14.53;;;4.27;;
65182;SDS011;51771;51.068;-1.780;2022-11-20T16:44:41;18.30;;;4.70;;
65182;SDS011;51771;51.068;-1.780;2022-11-20T16:47:06;17.53;;;3.93;;
65182;SDS011;51771;51.068;-1.780;2022-11-20T16:49:31;17.30;;;4.03;;
65182;SDS011;51771;51.068;-1.780;2022-11-20T16:51:57;12.52;;;2.97;;
65182;SDS011;51771;51.068;-1.780;2022-11-20T16:54:22;15.07;;;4.40;;
65182;SDS011;51771;51.068;-1.780;2022-11-20T16:56:47;11.68;;;4.05;;
65182;SDS011;51771;51.068;-1.780;2022-11-20T16:59:14;10.70;;;3.80;;
65182;SDS011;51771;51.068;-1.780;2022-11-20T17:01:40;14.52;;;5.18;;
65182;SDS011;51771;51.068;-1.780;2022-11-20T17:04:07;21.30;;;5.00;;
65182;SDS011;51771;51.068;-1.780;2022-11-20T17:06:33;15.27;;;4.60;;
65182;SDS011;51771;51.068;-1.780;2022-11-20T17:08:59;16.83;;;3.55;;
65182;SDS011;51771;51.068;-1.780;2022-11-20T17:11:24;18.95;;;3.63;;
65182;SDS011;51771;51.068;-1.780;2022-11-20T17:13:50;14.70;;;4.28;;
65182;SDS011;51771;51.068;-1.780;2022-11-20T17:16:16;13.98;;;3.55;;
65182;SDS011;51771;51.068;-1.780;2022-11-20T17:18:41;7.40;;;3.00;;
65182;SDS011;51771;51.068;-1.780;2022-11-20T17:21:08;15.05;;;3.90;;
65182;SDS011;51771;51.068;-1.780;2022-11-20T17:23:34;13.70;;;2.80;;
65182;SDS011;51771;51.068;-1.780;2022-11-20T17:26:00;17.90;;;3.88;;
65182;SDS011;51771;51.068;-1.780;2022-11-20T17:28:26;14.73;;;3.88;;
65182;SDS011;51771;51.068;-1.780;2022-11-20T17:30:51;31.43;;;3.70;;
65182;SDS011;51771;51.068;-1.780;2022-11-20T17:33:17;10.67;;;2.90;;
65182;SDS011;51771;51.068;-1.780;2022-11-20T17:35:42;33.78;;;4.53;;
65182;SDS011;51771;51.068;-1.780;2022-11-20T17:38:07;12.10;;;5.20;;
65182;SDS011;51771;51.068;-1.780;2022-11-20T17:40:32;19.17;;;3.93;;
65182;SDS011;51771;51.068;-1.780;2022-11-20T17:42:57;29.23;;;3.97;;
65182;SDS011;51771;51.068;-1.780;2022-11-20T17:45:23;14.33;;;5.93;;
65182;SDS011;51771;51.068;-1.780;2022-11-20T17:47:48;12.87;;;3.83;;
65182;SDS011;51771;51.068;-1.780;2022-11-20T17:50:13;21.00;;;4.77;;
65182;SDS011;51771;51.068;-1.780;2022-11-20T17:52:38;12.93;;;4.80;;
65182;SDS011;51771;51.068;-1.780;2022-11-20T17:55:04;13.82;;;3.20;;
65182;SDS011;51771;51.068;-1.780;2022-11-20T17:57:29;14.85;;;4.43;;
65182;SDS011;51771;51.068;-1.780;2022-11-20T18:00:13;15.45;;;5.70;;
65182;SDS011;51771;51.068;-1.780;2022-11-20T18:02:40;22.65;;;4.43;;
65182;SDS011;51771;51.068;-1.780;2022-11-20T18:05:05;23.63;;;3.78;;
65182;SDS011;51771;51.068;-1.780;2022-11-20T18:07:31;25.02;;;5.20;;
65182;SDS011;51771;51.068;-1.780;2022-11-20T18:09:56;13.77;;;4.28;;
65182;SDS011;51771;51.068;-1.780;2022-11-20T18:12:21;11.93;;;4.50;;
65182;SDS011;51771;51.068;-1.780;2022-11-20T18:14:46;22.40;;;5.03;;
65182;SDS011;51771;51.068;-1.780;2022-11-20T18:17:13;28.55;;;6.15;;
65182;SDS011;51771;51.068;-1.780;2022-11-20T18:19:39;14.75;;;5.63;;
65182;SDS011;51771;51.068;-1.780;2022-11-20T18:22:05;12.50;;;5.05;;
65182;SDS011;51771;51.068;-1.780;2022-11-20T18:24:31;29.08;;;10.40;;
65182;SDS011;51771;51.068;-1.780;2022-11-20T18:26:57;29.58;;;7.70;;
65182;SDS011;51771;51.068;-1.780;2022-11-20T18:29:22;32.72;;;8.80;;
65182;SDS011;51771;51.068;-1.780;2022-11-20T18:31:48;23.92;;;5.70;;
65182;SDS011;51771;51.068;-1.780;2022-11-20T18:34:13;20.67;;;6.28;;
65182;SDS011;51771;51.068;-1.780;2022-11-20T18:36:39;14.73;;;5.38;;
65182;SDS011;51771;51.068;-1.780;2022-11-20T18:39:05;30.08;;;6.25;;
65182;SDS011;51771;51.068;-1.780;2022-11-20T18:41:30;28.52;;;5.85;;
65182;SDS011;51771;51.068;-1.780;2022-11-20T18:44:16;23.27;;;5.65;;
65182;SDS011;51771;51.068;-1.780;2022-11-20T18:47:00;21.55;;;7.72;;
65182;SDS011;51771;51.068;-1.780;2022-11-20T18:49:25;24.30;;;9.07;;
65182;SDS011;51771;51.068;-1.780;2022-11-20T18:51:51;35.05;;;10.65;;
65182;SDS011;51771;51.068;-1.780;2022-11-20T18:54:16;42.65;;;10.18;;
65182;SDS011;51771;51.068;-1.780;2022-11-20T18:56:41;32.00;;;10.03;;
65182;SDS011;51771;51.068;-1.780;2022-11-20T18:59:07;32.37;;;8.87;;
65182;SDS011;51771;51.068;-1.780;2022-11-20T19:01:33;23.80;;;9.48;;
65182;SDS011;51771;51.068;-1.780;2022-11-20T19:03:58;31.33;;;8.05;;
65182;SDS011;51771;51.068;-1.780;2022-11-20T19:06:24;28.73;;;7.18;;
65182;SDS011;51771;51.068;-1.780;2022-11-20T19:08:50;16.00;;;6.15;;
65182;SDS011;51771;51.068;-1.780;2022-11-20T19:11:15;18.55;;;4.88;;
65182;SDS011;51771;51.068;-1.780;2022-11-20T19:13:40;11.65;;;4.15;;
65182;SDS011;51771;51.068;-1.780;2022-11-20T19:16:07;16.35;;;4.82;;
65182;SDS011;51771;51.068;-1.780;2022-11-20T19:18:33;14.35;;;4.15;;
65182;SDS011;51771;51.068;-1.780;2022-11-20T19:23:57;13.32;;;4.75;;
65182;SDS011;51771;51.068;-1.780;2022-11-20T19:26:23;21.48;;;3.47;;
65182;SDS011;51771;51.068;-1.780;2022-11-20T19:28:48;10.50;;;3.78;;
65182;SDS011;51771;51.068;-1.780;2022-11-20T19:31:15;18.20;;;4.15;;
65182;SDS011;51771;51.068;-1.780;2022-11-20T19:33:40;6.43;;;3.65;;
65182;SDS011;51771;51.068;-1.780;2022-11-20T19:36:19;9.90;;;3.63;;
65182;SDS011;51771;51.068;-1.780;2022-11-20T19:38:46;6.78;;;3.85;;
65182;SDS011;51771;51.068;-1.780;2022-11-20T19:41:12;13.27;;;3.88;;
65182;SDS011;51771;51.068;-1.780;2022-11-20T19:43:38;14.32;;;2.97;;
65182;SDS011;51771;51.068;-1.780;2022-11-20T19:46:03;15.15;;;4.97;;
65182;SDS011;51771;51.068;-1.780;2022-11-20T19:48:29;15.77;;;5.13;;
65182;SDS011;51771;51.068;-1.780;2022-11-20T19:50:55;10.93;;;4.20;;
65182;SDS011;51771;51.068;-1.780;2022-11-20T19:53:20;23.30;;;4.75;;
65182;SDS011;51771;51.068;-1.780;2022-11-20T19:55:55;22.50;;;4.30;;
65182;SDS011;51771;51.068;-1.780;2022-11-20T19:58:20;26.67;;;6.75;;
65182;SDS011;51771;51.068;-1.780;2022-11-20T20:00:46;24.95;;;5.55;;
65182;SDS011;51771;51.068;-1.780;2022-11-20T20:03:11;22.80;;;4.70;;
65182;SDS011;51771;51.068;-1.780;2022-11-20T20:05:36;29.98;;;8.50;;
65182;SDS011;51771;51.068;-1.780;2022-11-20T20:08:01;60.53;;;12.93;;
65182;SDS011;51771;51.068;-1.780;2022-11-20T20:10:26;41.07;;;13.17;;
65182;SDS011;51771;51.068;-1.780;2022-11-20T20:12:52;31.70;;;13.20;;
65182;SDS011;51771;51.068;-1.780;2022-11-20T20:15:18;51.92;;;14.43;;
65182;SDS011;51771;51.068;-1.780;2022-11-20T20:17:43;24.20;;;8.90;;
65182;SDS011;51771;51.068;-1.780;2022-11-20T20:20:08;29.30;;;8.13;;
65182;SDS011;51771;51.068;-1.780;2022-11-20T20:22:34;24.38;;;7.95;;
65182;SDS011;51771;51.068;-1.780;2022-11-20T20:24:59;22.23;;;8.13;;
65182;SDS011;51771;51.068;-1.780;2022-11-20T20:27:24;37.27;;;9.97;;
65182;SDS011;51771;51.068;-1.780;2022-11-20T20:29:49;34.87;;;12.00;;
65182;SDS011;51771;51.068;-1.780;2022-11-20T20:32:14;28.65;;;9.35;;
65182;SDS011;51771;51.068;-1.780;2022-11-20T20:34:40;25.37;;;8.37;;
65182;SDS011;51771;51.068;-1.780;2022-11-20T20:37:05;12.00;;;4.63;;
65182;SDS011;51771;51.068;-1.780;2022-11-20T20:39:30;24.03;;;4.57;;
65182;SDS011;51771;51.068;-1.780;2022-11-20T20:41:55;12.83;;;4.13;;
65182;SDS011;51771;51.068;-1.780;2022-11-20T20:44:20;17.53;;;5.03;;
65182;SDS011;51771;51.068;-1.780;2022-11-20T20:47:04;22.15;;;9.15;;
65182;SDS011;51771;51.068;-1.780;2022-11-20T20:49:31;8.90;;;5.17;;
65182;SDS011;51771;51.068;-1.780;2022-11-20T20:51:56;18.83;;;8.82;;
65182;SDS011;51771;51.068;-1.780;2022-11-20T20:54:22;21.15;;;4.70;;
65182;SDS011;51771;51.068;-1.780;2022-11-20T20:56:47;22.57;;;5.53;;
65182;SDS011;51771;51.068;-1.780;2022-11-20T20:59:14;15.05;;;3.92;;
65182;SDS011;51771;51.068;-1.780;2022-11-20T21:01:39;9.73;;;4.40;;
65182;SDS011;51771;51.068;-1.780;2022-11-20T21:04:04;8.33;;;4.03;;
65182;SDS011;51771;51.068;-1.780;2022-11-20T21:06:30;9.23;;;3.93;;
65182;SDS011;51771;51.068;-1.780;2022-11-20T21:08:55;14.60;;;3.30;;
65182;SDS011;51771;51.068;-1.780;2022-11-20T21:11:21;13.55;;;3.55;;
65182;SDS011;51771;51.068;-1.780;2022-11-20T21:13:47;11.15;;;4.78;;
65182;SDS011;51771;51.068;-1.780;2022-11-20T21:16:13;17.65;;;4.35;;
65182;SDS011;51771;51.068;-1.780;2022-11-20T21:18:38;13.68;;;4.68;;
65182;SDS011;51771;51.068;-1.780;2022-11-20T21:21:05;19.45;;;5.93;;
65182;SDS011;51771;51.068;-1.780;2022-11-20T21:23:49;11.23;;;5.03;;
65182;SDS011;51771;51.068;-1.780;2022-11-20T21:26:15;24.00;;;5.10;;
65182;SDS011;51771;51.068;-1.780;2022-11-20T21:28:40;18.15;;;5.05;;
65182;SDS011;51771;51.068;-1.780;2022-11-20T21:31:10;13.82;;;5.07;;
65182;SDS011;51771;51.068;-1.780;2022-11-20T21:33:45;22.25;;;5.40;;
65182;SDS011;51771;51.068;-1.780;2022-11-20T21:36:11;10.57;;;3.92;;
65182;SDS011;51771;51.068;-1.780;2022-11-20T21:38:37;16.02;;;4.32;;
65182;SDS011;51771;51.068;-1.780;2022-11-20T21:41:03;20.93;;;3.77;;
65182;SDS011;51771;51.068;-1.780;2022-11-20T21:43:28;27.60;;;4.78;;
65182;SDS011;51771;51.068;-1.780;2022-11-20T21:45:58;14.30;;;3.63;;
65182;SDS011;51771;51.068;-1.780;2022-11-20T21:48:26;20.67;;;4.45;;
65182;SDS011;51771;51.068;-1.780;2022-11-20T21:50:51;19.10;;;4.03;;
65182;SDS011;51771;51.068;-1.780;2022-11-20T21:53:17;15.23;;;4.47;;
65182;SDS011;51771;51.068;-1.780;2022-11-20T21:55:42;6.73;;;3.37;;
65182;SDS011;51771;51.068;-1.780;2022-11-20T21:58:07;26.93;;;6.00;;
65182;SDS011;51771;51.068;-1.780;2022-11-20T22:00:32;10.50;;;4.00;;
65182;SDS011;51771;51.068;-1.780;2022-11-20T22:02:57;25.95;;;4.47;;
65182;SDS011;51771;51.068;-1.780;2022-11-20T22:05:23;23.83;;;5.17;;
65182;SDS011;51771;51.068;-1.780;2022-11-20T22:07:48;25.30;;;5.93;;
65182;SDS011;51771;51.068;-1.780;2022-11-20T22:10:13;7.90;;;4.60;;
65182;SDS011;51771;51.068;-1.780;2022-11-20T22:12:38;10.23;;;4.13;;
65182;SDS011;51771;51.068;-1.780;2022-11-20T22:15:04;24.17;;;5.30;;
65182;SDS011;51771;51.068;-1.780;2022-11-20T22:17:29;14.90;;;4.95;;
65182;SDS011;51771;51.068;-1.780;2022-11-20T22:20:14;21.30;;;3.60;;
65182;SDS011;51771;51.068;-1.780;2022-11-20T22:22:39;11.82;;;4.32;;
65182;SDS011;51771;51.068;-1.780;2022-11-20T22:25:04;5.85;;;3.08;;
65182;SDS011;51771;51.068;-1.780;2022-11-20T22:27:30;28.63;;;3.78;;
65182;SDS011;51771;51.068;-1.780;2022-11-20T22:29:55;11.93;;;3.40;;
